createdAt,value
2023-04-02T00:02:21.429Z,101348.50
2023-04-02T00:05:26.291Z,101356.97
2023-04-02T00:07:57.952Z,101350.78
2023-04-02T00:10:46.797Z,101360.69
2023-04-02T00:13:13.589Z,101371.47
2023-04-02T00:15:42.763Z,101365.03
2023-04-02T00:18:18.458Z,101370.63
2023-04-02T00:20:51.192Z,101375.56
2023-04-02T00:23:17.657Z,101378.47
2023-04-02T00:25:46.118Z,101380.53
2023-04-02T00:28:15.546Z,101379.72
2023-04-02T00:30:47.934Z,101388.78
2023-04-02T00:33:18.016Z,101396.22
2023-04-02T00:35:44.604Z,101393.72
2023-04-02T00:38:22.565Z,101394.97
2023-04-02T00:40:51.483Z,101407.56
2023-04-02T00:43:18.419Z,101406.75
2023-04-02T00:45:51.209Z,101413.34
2023-04-02T00:48:37.929Z,101417.69
2023-04-02T00:51:38.720Z,101419.38
2023-04-02T00:54:06.804Z,101433.00
2023-04-02T00:56:43.317Z,101429.69
2023-04-02T00:59:42.926Z,101430.69
2023-04-02T01:02:17.237Z,101445.56
2023-04-02T01:05:02.695Z,101450.13
2023-04-02T01:07:54.360Z,101460.66
2023-04-02T01:10:29.722Z,101459.00
2023-04-02T01:13:13.634Z,101461.06
2023-04-02T01:16:07.486Z,101466.88
2023-04-02T01:18:57.241Z,101471.84
2023-04-02T01:21:56.178Z,101479.19
2023-04-02T01:24:26.455Z,101485.63
2023-04-02T01:26:59.352Z,101484.56
2023-04-02T01:29:32.866Z,101492.00
2023-04-02T01:32:04.175Z,101493.69
2023-04-02T01:34:31.016Z,101497.38
2023-04-02T01:37:11.381Z,101500.28
2023-04-02T01:39:55.731Z,101503.78
2023-04-02T01:42:29.861Z,101508.53
2023-04-02T01:45:07.940Z,101512.00
2023-04-02T01:47:34.527Z,101520.06
2023-04-02T01:50:31.458Z,101516.75
2023-04-02T01:53:04.289Z,101525.19
2023-04-02T01:55:31.282Z,101531.19
2023-04-02T01:58:00.120Z,101530.94
2023-04-02T02:00:30.184Z,101542.91
2023-04-02T02:02:56.938Z,101547.84
2023-04-02T02:05:23.855Z,101551.56
2023-04-02T02:07:52.146Z,101558.34
2023-04-02T02:10:25.735Z,101569.47
2023-04-02T02:12:52.501Z,101572.28
2023-04-02T02:15:24.029Z,101579.72
2023-04-02T02:17:55.546Z,101577.41
2023-04-02T02:20:22.207Z,101585.22
2023-04-02T02:22:51.129Z,101586.16
2023-04-02T02:25:21.604Z,101583.03
2023-04-02T02:28:08.345Z,101590.25
2023-04-02T02:30:42.045Z,101599.25
2023-04-02T02:33:16.442Z,101594.66
2023-04-02T02:36:12.960Z,101608.84
2023-04-02T02:38:56.213Z,101608.16
2023-04-02T02:41:27.060Z,101610.22
2023-04-02T02:44:00.552Z,101614.31
2023-04-02T02:46:28.961Z,101619.69
2023-04-02T02:48:57.596Z,101633.09
2023-04-02T02:51:39.364Z,101638.63
2023-04-02T02:54:07.774Z,101650.22
2023-04-02T02:56:40.514Z,101648.38
2023-04-02T02:59:09.887Z,101654.56
2023-04-02T03:01:37.035Z,101667.53
2023-04-02T03:04:03.753Z,101662.53
2023-04-02T03:06:30.935Z,101670.56
2023-04-02T03:09:39.667Z,101672.63
2023-04-02T03:12:32.513Z,101679.00
2023-04-02T03:15:08.192Z,101686.84
2023-04-02T03:17:51.305Z,101693.25
2023-04-02T03:20:26.895Z,101692.59
2023-04-02T03:22:58.497Z,101698.97
2023-04-02T03:25:37.079Z,101707.41
2023-04-02T03:28:11.218Z,101715.81
2023-04-02T03:30:37.860Z,101717.13
2023-04-02T03:33:12.789Z,101730.91
2023-04-02T03:36:06.253Z,101738.66
2023-04-02T03:38:36.798Z,101744.00
2023-04-02T03:41:22.710Z,101739.03
2023-04-02T03:44:02.803Z,101747.91
2023-04-02T03:46:38.214Z,101754.94
2023-04-02T03:49:11.368Z,101759.00
2023-04-02T03:51:47.026Z,101760.88
2023-04-02T03:54:16.099Z,101771.59
2023-04-02T03:56:47.165Z,101768.25
2023-04-02T03:59:23.254Z,101772.78
2023-04-02T04:01:59.149Z,101781.66
2023-04-02T04:04:29.372Z,101784.34
2023-04-02T04:06:58.408Z,101789.41
2023-04-02T04:09:31.579Z,101793.50
2023-04-02T04:12:16.403Z,101810.09
2023-04-02T04:14:49.517Z,101807.41
2023-04-02T04:17:24.620Z,101817.16
2023-04-02T04:19:57.826Z,101822.88
2023-04-02T04:22:32.637Z,101824.72
2023-04-02T04:25:00.568Z,101830.72
2023-04-02T04:27:36.652Z,101839.97
2023-04-02T04:30:16.955Z,101844.69
2023-04-02T04:33:05.028Z,101855.28
2023-04-02T04:35:37.230Z,101855.28
2023-04-02T04:38:14.590Z,101860.00
2023-04-02T04:40:54.232Z,101870.78
2023-04-02T04:43:34.733Z,101874.81
2023-04-02T04:46:09.327Z,101883.19
2023-04-02T04:48:57.085Z,101888.25
2023-04-02T04:51:28.316Z,101891.47
2023-04-02T04:53:55.637Z,101895.06
2023-04-02T04:56:26.735Z,101900.41
2023-04-02T04:59:02.189Z,101911.88
2023-04-02T05:01:40.698Z,101918.56
2023-04-02T05:04:19.440Z,101923.28
2023-04-02T05:06:54.640Z,101924.94
2023-04-02T05:09:34.725Z,101932.69
2023-04-02T05:12:13.377Z,101934.75
2023-04-02T05:14:48.841Z,101948.16
2023-04-02T05:17:24.347Z,101960.06
2023-04-02T05:20:00.863Z,101966.25
2023-04-02T05:22:36.284Z,101975.28
2023-04-02T05:25:24.601Z,101981.28
2023-04-02T05:27:52.622Z,101987.16
2023-04-02T05:30:25.183Z,101991.50
2023-04-02T05:33:00.421Z,101999.69
2023-04-02T05:35:34.577Z,102004.84
2023-04-02T05:38:02.549Z,102007.31
2023-04-02T05:40:41.770Z,102012.34
2023-04-02T05:43:11.066Z,102026.22
2023-04-02T05:45:41.434Z,102023.19
2023-04-02T05:48:21.330Z,102026.50
2023-04-02T05:50:52.702Z,102024.69
2023-04-02T05:53:24.165Z,102032.69
2023-04-02T05:55:57.205Z,102043.75
2023-04-02T05:58:35.409Z,102053.47
2023-04-02T06:01:21.484Z,102060.47
2023-04-02T06:04:16.216Z,102062.13
2023-04-02T06:06:46.664Z,102064.81
2023-04-02T06:09:23.081Z,102081.00
2023-04-02T06:11:56.973Z,102083.03
2023-04-02T06:14:23.346Z,102092.91
2023-04-02T06:16:49.935Z,102098.28
2023-04-02T06:19:23.684Z,102120.38
2023-04-02T06:21:53.025Z,102119.41
2023-04-02T06:24:25.303Z,102131.44
2023-04-02T06:26:57.946Z,102131.97
2023-04-02T06:29:27.185Z,102126.44
2023-04-02T06:31:59.890Z,102142.50
2023-04-02T06:34:28.908Z,102146.53
2023-04-02T06:37:01.643Z,102149.88
2023-04-02T06:39:28.176Z,102144.69
2023-04-02T06:42:27.073Z,102153.41
2023-04-02T06:44:54.003Z,102160.56
2023-04-02T06:47:37.625Z,102158.63
2023-04-02T06:50:14.920Z,102164.44
2023-04-02T06:52:47.674Z,102168.00
2023-04-02T06:55:22.965Z,102183.09
2023-04-02T06:57:49.366Z,102180.59
2023-04-02T07:00:42.674Z,102184.44
2023-04-02T07:03:25.900Z,102192.94
2023-04-02T07:05:52.335Z,102204.50
2023-04-02T07:08:18.774Z,102203.50
2023-04-02T07:10:45.377Z,102219.88
2023-04-02T07:13:22.534Z,102221.59
2023-04-02T07:15:52.543Z,102227.63
2023-04-02T07:18:28.440Z,102232.13
2023-04-02T07:20:55.500Z,102237.03
2023-04-02T07:23:22.196Z,102243.50
2023-04-02T07:25:50.378Z,102248.38
2023-04-02T07:28:17.288Z,102260.09
2023-04-02T07:30:43.790Z,102255.22
2023-04-02T07:33:14.746Z,102261.06
2023-04-02T07:35:41.461Z,102265.94
2023-04-02T07:38:08.456Z,102278.50
2023-04-02T07:40:34.860Z,102283.38
2023-04-02T07:43:01.481Z,102283.88
2023-04-02T07:45:27.853Z,102288.78
2023-04-02T07:47:54.591Z,102282.56
2023-04-02T07:50:21.052Z,102291.59
2023-04-02T07:52:47.408Z,102291.09
2023-04-02T07:55:15.446Z,102288.41
2023-04-02T07:57:48.690Z,102290.59
2023-04-02T08:00:15.953Z,102290.91
2023-04-02T08:02:42.684Z,102300.78
2023-04-02T08:05:10.725Z,102304.31
2023-04-02T08:07:37.230Z,102307.34
2023-04-02T08:10:05.037Z,102317.41
2023-04-02T08:12:31.481Z,102318.41
2023-04-02T08:14:58.017Z,102321.41
2023-04-02T08:17:24.476Z,102328.81
2023-04-02T08:19:55.220Z,102328.66
2023-04-02T08:22:21.925Z,102334.81
2023-04-02T08:24:48.365Z,102337.50
2023-04-02T08:27:15.195Z,102343.38
2023-04-02T08:29:41.612Z,102344.91
2023-04-02T08:32:12.364Z,102351.63
2023-04-02T08:34:38.698Z,102361.00
2023-04-02T08:37:05.095Z,102368.06
2023-04-02T08:39:33.165Z,102371.78
2023-04-02T08:42:05.009Z,102383.03
2023-04-02T08:44:49.238Z,102376.31
2023-04-02T08:47:19.346Z,102380.34
2023-04-02T08:49:52.373Z,102391.75
2023-04-02T08:52:25.782Z,102390.09
2023-04-02T08:54:53.490Z,102397.09
2023-04-02T08:58:02.953Z,102410.34
2023-04-02T09:00:52.417Z,102406.84
2023-04-02T09:03:27.693Z,102419.41
2023-04-02T09:05:56.016Z,102426.13
2023-04-02T09:08:25.012Z,102427.13
2023-04-02T09:11:19.335Z,102428.50
2023-04-02T09:13:49.033Z,102431.19
2023-04-02T09:16:23.110Z,102432.50
2023-04-02T09:18:52.707Z,102438.53
2023-04-02T09:21:22.456Z,102440.56
2023-04-02T09:23:49.842Z,102440.22
2023-04-02T09:26:31.188Z,102442.41
2023-04-02T09:29:12.664Z,102447.25
2023-04-02T09:31:43.316Z,102452.00
2023-04-02T09:34:28.711Z,102461.31
2023-04-02T09:36:55.997Z,102460.09
2023-04-02T09:39:28.067Z,102470.00
2023-04-02T09:42:05.129Z,102461.97
2023-04-02T09:44:33.241Z,102468.56
2023-04-02T09:47:05.800Z,102453.22
2023-04-02T09:49:38.339Z,102465.28
2023-04-02T09:52:28.493Z,102459.41
2023-04-02T09:55:26.158Z,102460.69
2023-04-02T09:58:16.848Z,102462.38
2023-04-02T10:00:51.395Z,102463.63
2023-04-02T10:03:29.541Z,102472.81
2023-04-02T10:06:11.366Z,102470.75
2023-04-02T10:08:40.163Z,102474.88
2023-04-02T10:11:12.953Z,102481.38
2023-04-02T10:13:42.270Z,102482.81
2023-04-02T10:16:23.412Z,102484.22
2023-04-02T10:18:56.948Z,102490.31
2023-04-02T10:21:31.211Z,102488.19
2023-04-02T10:23:59.270Z,102493.44
2023-04-02T10:27:02.964Z,102495.81
2023-04-02T10:29:50.165Z,102493.16
2023-04-02T10:32:20.066Z,102495.72
2023-04-02T10:35:03.540Z,102502.72
2023-04-02T10:38:07.141Z,102502.88
2023-04-02T10:40:39.858Z,102498.88
2023-04-02T10:43:34.424Z,102502.50
2023-04-02T10:46:11.483Z,102498.16
2023-04-02T10:48:43.788Z,102505.63
2023-04-02T10:51:36.958Z,102502.50
2023-04-02T10:54:23.131Z,102502.84
2023-04-02T10:56:53.252Z,102507.06
2023-04-02T10:59:26.167Z,102500.84
2023-04-02T11:01:57.263Z,102520.91
2023-04-02T11:04:32.710Z,102514.75
2023-04-02T11:07:13.900Z,102519.09
2023-04-02T11:09:46.247Z,102525.50
2023-04-02T11:12:23.249Z,102534.31
2023-04-02T11:14:51.545Z,102534.69
2023-04-02T11:17:20.538Z,102526.13
2023-04-02T11:19:47.214Z,102528.00
2023-04-02T11:22:21.888Z,102537.06
2023-04-02T11:24:57.045Z,102534.28
2023-04-02T11:27:31.946Z,102529.38
2023-04-02T11:30:01.258Z,102533.38
2023-04-02T11:32:33.569Z,102541.63
2023-04-02T11:35:06.426Z,102549.34
2023-04-02T11:37:44.858Z,102550.47
2023-04-02T11:40:17.614Z,102547.22
2023-04-02T11:42:47.104Z,102553.13
2023-04-02T11:45:28.746Z,102550.56
2023-04-02T11:48:08.076Z,102554.78
2023-04-02T11:50:36.258Z,102562.13
2023-04-02T11:53:26.349Z,102557.66
2023-04-02T11:56:30.467Z,102562.97
2023-04-02T11:59:21.313Z,102570.94
2023-04-02T12:02:06.558Z,102570.69
2023-04-02T12:04:56.864Z,102566.16
2023-04-02T12:07:35.069Z,102567.22
2023-04-02T12:10:15.749Z,102576.75
2023-04-02T12:12:43.055Z,102576.97
2023-04-02T12:15:28.756Z,102586.88
2023-04-02T12:18:06.255Z,102579.47
2023-04-02T12:20:33.514Z,102583.97
2023-04-02T12:23:00.286Z,102582.31
2023-04-02T12:25:31.602Z,102586.94
2023-04-02T12:28:10.054Z,102582.19
2023-04-02T12:30:38.005Z,102599.28
2023-04-02T12:33:19.718Z,102597.88
2023-04-02T12:35:54.591Z,102598.50
2023-04-02T12:38:29.757Z,102587.50
2023-04-02T12:41:01.403Z,102592.59
2023-04-02T12:43:30.191Z,102598.28
2023-04-02T12:46:00.721Z,102593.66
2023-04-02T12:48:29.513Z,102589.31
2023-04-02T12:50:57.359Z,102604.19
2023-04-02T12:53:34.009Z,102605.47
2023-04-02T12:56:01.538Z,102611.13
2023-04-02T12:58:33.519Z,102601.41
2023-04-02T13:01:14.598Z,102610.56
2023-04-02T13:03:41.548Z,102606.84
2023-04-02T13:06:38.518Z,102600.66
2023-04-02T13:09:34.967Z,102608.50
2023-04-02T13:12:03.168Z,102607.09
2023-04-02T13:14:29.868Z,102606.88
2023-04-02T13:16:56.557Z,102618.28
2023-04-02T13:19:31.729Z,102618.53
2023-04-02T13:22:00.969Z,102621.41
2023-04-02T13:24:29.657Z,102613.25
2023-04-02T13:26:58.506Z,102617.63
2023-04-02T13:29:36.844Z,102613.44
2023-04-02T13:32:06.229Z,102617.06
2023-04-02T13:34:32.833Z,102617.94
2023-04-02T13:36:59.531Z,102617.13
2023-04-02T13:39:26.036Z,102625.94
2023-04-02T13:42:03.540Z,102625.53
2023-04-02T13:44:32.413Z,102619.50
2023-04-02T13:46:59.899Z,102616.38
2023-04-02T13:49:27.468Z,102623.78
2023-04-02T13:51:59.810Z,102624.66
2023-04-02T13:54:33.662Z,102615.38
2023-04-02T13:57:00.490Z,102626.41
2023-04-02T13:59:27.386Z,102624.38
2023-04-02T14:01:58.500Z,102630.47
2023-04-02T14:04:29.068Z,102626.81
2023-04-02T14:07:16.854Z,102637.00
2023-04-02T14:10:12.696Z,102637.25
2023-04-02T14:13:07.153Z,102627.66
2023-04-02T14:16:14.729Z,102630.53
2023-04-02T14:19:06.391Z,102638.31
2023-04-02T14:21:39.297Z,102641.94
2023-04-02T14:24:19.169Z,102646.25
2023-04-02T14:27:05.528Z,102640.81
2023-04-02T14:29:48.112Z,102650.66
2023-04-02T14:33:07.281Z,102653.97
2023-04-02T14:35:42.730Z,102652.09
2023-04-02T14:38:19.561Z,102652.38
2023-04-02T14:41:13.169Z,102650.44
2023-04-02T14:43:44.524Z,102654.19
2023-04-02T14:46:11.281Z,102658.66
2023-04-02T14:48:57.095Z,102663.16
2023-04-02T14:51:26.390Z,102662.00
2023-04-02T14:54:01.241Z,102672.53
2023-04-02T14:56:29.007Z,102673.34
2023-04-02T14:59:14.517Z,102668.09
2023-04-02T15:01:46.903Z,102666.13
2023-04-02T15:04:37.303Z,102668.91
2023-04-02T15:07:13.919Z,102665.19
2023-04-02T15:09:50.462Z,102667.72
2023-04-02T15:12:28.904Z,102675.53
2023-04-02T15:15:04.259Z,102669.72
2023-04-02T15:17:32.096Z,102676.34
2023-04-02T15:20:16.677Z,102684.69
2023-04-02T15:22:58.271Z,102681.13
2023-04-02T15:25:46.833Z,102682.44
2023-04-02T15:28:22.754Z,102682.13
2023-04-02T15:30:58.133Z,102681.53
2023-04-02T15:33:41.181Z,102686.31
2023-04-02T15:36:16.445Z,102684.94
2023-04-02T15:38:52.183Z,102687.16
2023-04-02T15:41:35.906Z,102683.59
2023-04-02T15:44:10.836Z,102687.94
2023-04-02T15:46:44.727Z,102690.69
2023-04-02T15:49:30.133Z,102693.25
2023-04-02T15:52:08.737Z,102696.59
2023-04-02T15:54:54.648Z,102696.13
2023-04-02T15:57:29.059Z,102693.09
2023-04-02T16:00:12.885Z,102693.38
2023-04-02T16:03:17.469Z,102698.78
2023-04-02T16:06:06.340Z,102690.09
2023-04-02T16:08:56.945Z,102696.06
2023-04-02T16:11:24.614Z,102701.72
2023-04-02T16:13:53.613Z,102705.41
2023-04-02T16:16:26.907Z,102715.34
2023-04-02T16:19:02.797Z,102723.50
2023-04-02T16:21:33.528Z,102723.97
2023-04-02T16:24:01.274Z,102725.41
2023-04-02T16:26:39.565Z,102723.28
2023-04-02T16:29:15.886Z,102722.97
2023-04-02T16:31:55.770Z,102728.91
2023-04-02T16:34:42.763Z,102724.53
2023-04-02T16:37:32.232Z,102738.28
2023-04-02T16:40:15.495Z,102747.19
2023-04-02T16:42:54.065Z,102742.88
2023-04-02T16:45:38.285Z,102752.94
2023-04-02T16:48:33.089Z,102750.44
2023-04-02T16:51:29.093Z,102766.63
2023-04-02T16:54:28.939Z,102764.28
2023-04-02T16:57:10.566Z,102770.56
2023-04-02T17:00:06.328Z,102784.78
2023-04-02T17:03:29.679Z,102785.66
2023-04-02T17:06:04.550Z,102786.91
2023-04-02T17:08:41.792Z,102795.28
2023-04-02T17:11:12.547Z,102792.56
2023-04-02T17:13:47.089Z,102805.50
2023-04-02T17:16:23.752Z,102806.75
2023-04-02T17:18:57.779Z,102811.56
2023-04-02T17:21:26.530Z,102818.13
2023-04-02T17:24:00.437Z,102827.63
2023-04-02T17:26:31.494Z,102829.84
2023-04-02T17:29:03.612Z,102826.47
2023-04-02T17:31:35.391Z,102830.00
2023-04-02T17:34:24.116Z,102831.63
2023-04-02T17:37:23.657Z,102830.56
2023-04-02T17:40:07.583Z,102836.75
2023-04-02T17:42:39.554Z,102842.84
2023-04-02T17:45:13.904Z,102838.13
2023-04-02T17:47:46.598Z,102845.22
2023-04-02T17:50:40.452Z,102851.69
2023-04-02T17:53:25.785Z,102856.63
2023-04-02T17:56:08.881Z,102862.91
2023-04-02T17:58:38.105Z,102867.25
2023-04-02T18:01:17.765Z,102873.84
2023-04-02T18:04:13.026Z,102874.44
2023-04-02T18:07:12.137Z,102869.34
2023-04-02T18:09:53.752Z,102880.50
2023-04-02T18:12:32.075Z,102880.97
2023-04-02T18:15:08.928Z,102890.00
2023-04-02T18:17:53.998Z,102890.84
2023-04-02T18:21:05.609Z,102893.03
2023-04-02T18:24:03.957Z,102901.59
2023-04-02T18:26:49.352Z,102900.13
2023-04-02T18:29:39.287Z,102905.56
2023-04-02T18:32:33.751Z,102902.56
2023-04-02T18:35:29.496Z,102916.72
2023-04-02T18:38:33.798Z,102920.75
2023-04-02T18:41:12.473Z,102923.25
2023-04-02T18:43:47.876Z,102926.91
2023-04-02T18:46:28.239Z,102928.91
2023-04-02T18:49:00.445Z,102930.88
2023-04-02T18:51:31.870Z,102935.19
2023-04-02T18:54:29.214Z,102943.75
2023-04-02T18:56:56.140Z,102946.44
2023-04-02T18:59:34.715Z,102959.19
2023-04-02T19:02:18.901Z,102954.44
2023-04-02T19:04:53.087Z,102963.91
2023-04-02T19:07:21.407Z,102953.78
2023-04-02T19:09:51.647Z,102972.06
2023-04-02T19:12:20.492Z,102978.88
2023-04-02T19:14:50.271Z,102977.13
2023-04-02T19:17:33.412Z,102985.88
2023-04-02T19:20:15.005Z,102992.63
2023-04-02T19:22:56.984Z,102999.75
2023-04-02T19:25:50.817Z,102999.75
2023-04-02T19:28:38.844Z,103005.19
2023-04-02T19:31:22.192Z,103012.84
2023-04-02T19:34:07.040Z,103013.41
2023-04-02T19:36:42.237Z,103013.41
2023-04-02T19:39:23.874Z,103012.09
2023-04-02T19:41:59.881Z,103010.47
2023-04-02T19:44:26.617Z,103012.50
2023-04-02T19:46:53.099Z,103017.69
2023-04-02T19:49:30.295Z,103030.63
2023-04-02T19:51:56.922Z,103013.91
2023-04-02T19:54:23.337Z,103029.25
2023-04-02T19:56:50.165Z,103029.16
2023-04-02T19:59:18.766Z,103034.41
2023-04-02T20:01:46.396Z,103028.19
2023-04-02T20:04:14.163Z,103032.41
2023-04-02T20:06:40.754Z,103030.91
2023-04-02T20:09:08.618Z,103034.94
2023-04-02T20:11:36.914Z,103034.94
2023-04-02T20:14:03.770Z,103036.94
2023-04-02T20:16:30.283Z,103034.94
2023-04-02T20:18:57.883Z,103039.09
2023-04-02T20:21:24.827Z,103040.97
2023-04-02T20:23:55.375Z,103042.63
2023-04-02T20:26:22.641Z,103054.78
2023-04-02T20:28:49.242Z,103049.84
2023-04-02T20:31:18.075Z,103057.44
2023-04-02T20:33:44.888Z,103053.38
2023-04-02T20:36:14.572Z,103067.31
2023-04-02T20:38:41.632Z,103066.94
2023-04-02T20:41:09.460Z,103075.50
2023-04-02T20:43:37.429Z,103078.72
2023-04-02T20:46:05.568Z,103078.63
2023-04-02T20:48:33.125Z,103078.63
2023-04-02T20:51:01.808Z,103083.84
2023-04-02T20:53:34.366Z,103081.78
2023-04-02T20:56:06.349Z,103081.50
2023-04-02T20:58:34.597Z,103081.16
2023-04-02T21:01:11.953Z,103087.00
2023-04-02T21:03:39.959Z,103095.19
2023-04-02T21:06:11.721Z,103100.72
2023-04-02T21:08:38.251Z,103101.84
2023-04-02T21:11:05.518Z,103108.19
2023-04-02T21:13:36.205Z,103108.28
2023-04-02T21:16:04.680Z,103114.13
2023-04-02T21:18:31.540Z,103114.91
2023-04-02T21:21:03.982Z,103120.59
2023-04-02T21:23:31.616Z,103121.91
2023-04-02T21:26:00.881Z,103121.59
2023-04-02T21:28:27.981Z,103121.28
2023-04-02T21:31:27.861Z,103127.06
2023-04-02T21:33:57.003Z,103132.81
2023-04-02T21:36:27.630Z,103138.75
2023-04-02T21:39:09.376Z,103139.78
2023-04-02T21:41:41.668Z,103141.06
2023-04-02T21:44:09.851Z,103138.69
2023-04-02T21:46:38.632Z,103143.69
2023-04-02T21:49:06.007Z,103135.94
2023-04-02T21:51:33.979Z,103154.78
2023-04-02T21:54:00.725Z,103147.50
2023-04-02T21:56:29.188Z,103149.75
2023-04-02T21:58:56.982Z,103142.31
2023-04-02T22:01:27.970Z,103143.91
2023-04-02T22:03:56.125Z,103146.75
2023-04-02T22:06:23.322Z,103143.03
2023-04-02T22:09:01.247Z,103142.56
2023-04-02T22:11:33.268Z,103144.13
2023-04-02T22:14:00.122Z,103150.94
2023-04-02T22:16:29.707Z,103152.25
2023-04-02T22:19:01.494Z,103145.09
2023-04-02T22:21:29.431Z,103149.91
2023-04-02T22:23:55.861Z,103156.41
2023-04-02T22:26:23.269Z,103156.97
2023-04-02T22:28:52.381Z,103156.41
2023-04-02T22:31:21.471Z,103153.44
2023-04-02T22:33:48.261Z,103150.88
2023-04-02T22:36:15.914Z,103150.50
2023-04-02T22:38:42.632Z,103150.44
2023-04-02T22:41:17.134Z,103151.63
2023-04-02T22:43:45.409Z,103150.84
2023-04-02T22:46:15.076Z,103156.13
2023-04-02T22:48:42.360Z,103151.34
2023-04-02T22:51:10.863Z,103156.31
2023-04-02T22:53:37.985Z,103158.25
2023-04-02T22:56:09.922Z,103154.88
2023-04-02T22:58:36.835Z,103173.66
2023-04-02T23:01:15.937Z,103164.47
2023-04-02T23:03:42.780Z,103166.31
2023-04-02T23:06:12.003Z,103165.59
2023-04-02T23:08:39.518Z,103175.19
2023-04-02T23:11:11.836Z,103167.91
2023-04-02T23:13:39.899Z,103174.25
2023-04-02T23:16:07.511Z,103174.94
2023-04-02T23:18:35.700Z,103167.63
2023-04-02T23:21:02.180Z,103168.81
2023-04-02T23:23:28.739Z,103163.06
2023-04-02T23:26:17.062Z,103175.03
2023-04-02T23:28:43.686Z,103169.09
2023-04-02T23:31:19.421Z,103176.00
2023-04-02T23:33:45.902Z,103180.13
2023-04-02T23:36:26.092Z,103174.75
2023-04-02T23:38:55.403Z,103178.44
2023-04-02T23:41:23.956Z,103182.09
2023-04-02T23:43:50.996Z,103180.84
2023-04-02T23:46:17.435Z,103183.38
2023-04-02T23:48:45.794Z,103185.66
2023-04-02T23:51:12.905Z,103181.13
2023-04-02T23:53:39.724Z,103178.72
2023-04-02T23:56:06.338Z,103187.63
2023-04-02T23:58:32.731Z,103187.91
